Briarwood, New York
Current Conditions -  °F | °C
As of 10:51 PM on Thursday 27 Nov 2014 (Local Time) from KJFK Reporting Station
Broken Clouds Broken Clouds  
Wind Chill: 28°   Ceiling: 4100
Heat Index: 37°   Visibility: 10mi
Dew Point: 25°   Wind: 15mph
Humidity: 62%   Direction: 320°NW
Pressure: 30.07"   Gusts: 23mph
Location:  40.7006°N, 73.8099°W
Report Text: KJFK 280351Z 32013G20KT 10SM FEW028 BKN041 03/M04 A3007 RMK AO2 SLP181 T00281039 $
Loading
Personal Weather Stations






























Interactive Weather Map New forecast layout! Learn more

10-Day Weather Forecast

Advertisements
Track Severe Weather on mobile